Topeka, KS (66611)

10:29 AM CDT die 31o March, anno 2015 (GMT -0500)
Knollwood | | Change Station
CLOSE
Current Station
Personal Weather Stations
Location: Topeka, KS
Elevation: 978 ft
Nearby Weather Stations

Elev 978 ft 39.02 °N, 95.70 °W | Updated 1 minute ago

Serena
Serena
70.5 °F
Feels Like 76 °F
N
4.3
Ventus Variabilis Ventus from Inter Aquilonem et Eurum

Hodie
High -- | Low -- °F
--% Chance of Precip.
Yesterday
High -- | Low -- °F
Precip. -- in
7:09 AM 7:45 PM
Waxing Gibbous, 87% visible
Pressio 30.01 in
Visibilitas 10.0 milia passuum
Clouds Serena
Index Caloris 76 °F
Frigus in quo Ros apparet 39 °F
Umor 32%
Rainfall 0.00 in
Snow Depth Not available.
UV 3 out of 12
Pollen 9.40 out of 12
Air Quality Not available.
Flu Activity Not available.
METAR KFOE 311453Z 07011KT 10SM CLR 18/02 A3002 RMK AO2 SLP160 T01780017 53021

More Conditions Fewer Conditions

Pressio 30.01 in
Visibilitas 10.0 milia passuum
Clouds Serena
Index Caloris 76 °F
Frigus in quo Ros apparet 39 °F
Umor 32%
Rainfall 0.00 in
Snow Depth Not available.
UV 3 out of 12
Pollen 9.40 out of 12
Air Quality Not available.
Flu Activity Not available.
METAR KFOE 311453Z 07011KT 10SM CLR 18/02 A3002 RMK AO2 SLP160 T01780017 53021

More Conditions Fewer Conditions

10-Day Weather Forecast

Almanac

Astronomy

Mar. 31, 2015 Rise Set
Actual Time
Civil Twilight
Nautical Twilight
Astronomical Twilight
Moon
Length Of Visible Light
Length of Day
Tomorrow will be .
, % of the Moon is Illuminated

Today's Extremes

State Highs State Lows

Community

WunderPhotos

Upload Photos

1,809,778 photos uploaded!

WunderBlogs® & News

Nearby

Air Quality

  Air Quality AQ Index Pollutant
Not available.

Snow Depth

Station Depth Elevation

Earthquake Activity

City Distance Mag. Time & Date
Minimum magnitude displayed is 2.5.

Coastal Water Temperatures

Locus Calor

Stations

Nearby Weather Stations

Station Location Temp Frigus Venti Frigus in quo Ros apparet Umor Ventus Precip. Elev Renovata Type